Time;durP1;ratioP1;P1;durP2;ratioP2;P2;SDS_P1;SDS_P2;PMS_P1;PMS_P2;Temp;Humidity;BMP_temperature;BMP_pressure;BME280_temperature;BME280_humidity;BME280_pressure;Samples;Min_cycle;Max_cycle;Signal;HPM_P1;HPM_P2
2023/09/01 00:00:12;;;;;;;7.27;3.37;;;16.70;99.90;;;;;;7311625;19;20185;-80
2023/09/01 00:02:40;;;;;;;7.90;3.20;;;16.80;99.90;;;;;;7289694;19;20707;-80
2023/09/01 00:05:10;;;;;;;7.77;3.10;;;16.90;99.90;;;;;;7289523;19;20185;-80
2023/09/01 00:07:36;;;;;;;6.03;2.83;;;17.00;99.90;;;;;;7290999;19;20711;-81
2023/09/01 00:10:03;;;;;;;6.27;2.70;;;17.10;99.90;;;;;;7289500;19;20184;-81
2023/09/01 00:12:29;;;;;;;5.43;2.60;;;17.00;99.90;;;;;;7288960;19;20204;-81
2023/09/01 00:14:55;;;;;;;5.57;2.60;;;17.00;99.90;;;;;;7287681;19;20219;-80
2023/09/01 00:17:21;;;;;;;5.77;2.97;;;17.00;99.90;;;;;;7287654;19;20203;-80
2023/09/01 00:19:47;;;;;;;6.90;2.97;;;17.20;99.90;;;;;;7288597;19;20195;-80
2023/09/01 00:22:12;;;;;;;7.03;3.00;;;17.10;99.90;;;;;;7290735;19;20554;-80
2023/09/01 00:24:38;;;;;;;5.93;2.77;;;17.00;99.90;;;;;;7310078;19;20194;-80
2023/09/01 00:27:04;;;;;;;6.97;3.00;;;16.90;99.90;;;;;;7287960;19;20216;-80
2023/09/01 00:29:33;;;;;;;7.20;2.83;;;17.00;99.90;;;;;;7287694;19;20196;-80
2023/09/01 00:32:00;;;;;;;8.37;2.80;;;17.00;99.90;;;;;;7283019;19;20224;-79
2023/09/01 00:34:26;;;;;;;6.43;2.83;;;17.00;99.90;;;;;;7286512;19;20670;-80
2023/09/01 00:36:52;;;;;;;9.07;3.03;;;17.20;99.90;;;;;;7287569;19;20206;-80
2023/09/01 00:39:17;;;;;;;7.93;3.00;;;17.10;99.90;;;;;;7288537;19;20192;-80
2023/09/01 00:41:43;;;;;;;5.80;3.00;;;17.20;99.90;;;;;;7287702;19;20286;-79
2023/09/01 00:44:13;;;;;;;4.97;2.93;;;17.10;99.90;;;;;;7308902;19;20191;-78
2023/09/01 00:46:43;;;;;;;6.53;2.73;;;17.00;99.90;;;;;;7289575;19;20766;-80
2023/09/01 00:49:10;;;;;;;7.17;3.30;;;17.00;99.90;;;;;;7289351;19;20625;-81
2023/09/01 00:51:36;;;;;;;5.93;3.10;;;17.00;99.90;;;;;;7287218;19;20188;-79
2023/09/01 00:54:03;;;;;;;7.53;3.20;;;16.90;99.90;;;;;;7287073;19;20253;-80
2023/09/01 00:56:29;;;;;;;7.10;3.10;;;16.90;99.90;;;;;;7287773;19;20195;-79
2023/09/01 00:58:54;;;;;;;8.77;3.67;;;16.90;99.90;;;;;;7288301;19;20537;-79
2023/09/01 01:01:20;;;;;;;9.40;4.50;;;16.80;99.90;;;;;;7288147;19;20209;-81
2023/09/01 01:03:49;;;;;;;8.73;4.17;;;16.90;99.90;;;;;;7285256;19;20685;-79
2023/09/01 01:06:27;;;;;;;9.20;3.83;;;16.90;99.90;;;;;;7286377;19;20667;-80
2023/09/01 01:09:11;;;;;;;7.17;3.43;;;16.90;99.90;;;;;;7288170;19;20188;-80
2023/09/01 01:11:55;;;;;;;6.73;3.63;;;17.00;99.90;;;;;;7287314;19;20189;-79
2023/09/01 01:14:30;;;;;;;11.80;4.00;;;17.10;99.90;;;;;;7184578;19;2005992;-79
2023/09/01 01:16:57;;;;;;;7.73;3.73;;;17.10;99.90;;;;;;7286823;19;20199;-80
2023/09/01 01:19:25;;;;;;;9.53;3.73;;;17.30;99.90;;;;;;7285290;19;20656;-79
2023/09/01 01:21:52;;;;;;;10.03;4.43;;;17.30;99.90;;;;;;7285374;19;20234;-79
2023/09/01 01:24:19;;;;;;;10.87;5.10;;;17.30;99.90;;;;;;7284126;19;20197;-80
2023/09/01 01:26:45;;;;;;;11.47;5.27;;;17.30;99.90;;;;;;7285491;19;20222;-79
2023/09/01 01:29:11;;;;;;;10.93;5.17;;;17.30;99.90;;;;;;7302723;19;20257;-79
2023/09/01 01:31:37;;;;;;;14.20;5.20;;;17.40;99.90;;;;;;7294654;19;20682;-80
2023/09/01 01:34:31;;;;;;;10.50;5.20;;;17.50;99.90;;;;;;7286210;19;20192;-80
2023/09/01 01:37:08;;;;;;;11.60;5.30;;;17.50;99.90;;;;;;7181769;19;2005041;-79
2023/09/01 01:39:35;;;;;;;11.10;5.17;;;17.50;99.90;;;;;;7284555;19;20209;-80
2023/09/01 01:42:10;;;;;;;14.00;5.40;;;17.60;99.90;;;;;;7286988;19;20188;-79
2023/09/01 01:44:41;;;;;;;11.30;5.40;;;17.60;99.90;;;;;;7283773;19;20200;-78
2023/09/01 01:47:08;;;;;;;11.90;6.00;;;17.60;99.90;;;;;;7285301;19;20764;-80
2023/09/01 01:49:34;;;;;;;10.23;5.50;;;17.50;99.90;;;;;;7286844;19;20197;-80
2023/09/01 01:52:00;;;;;;;10.90;5.30;;;17.40;99.90;;;;;;7285309;19;20427;-79
2023/09/01 01:54:30;;;;;;;11.50;5.20;;;17.30;99.90;;;;;;7286048;19;20583;-80
2023/09/01 01:56:56;;;;;;;10.13;5.10;;;17.30;99.90;;;;;;7284358;19;20188;-81
2023/09/01 01:59:22;;;;;;;10.53;5.53;;;17.30;99.90;;;;;;7284531;19;20192;-80
2023/09/01 02:01:49;;;;;;;10.40;5.33;;;17.30;99.90;;;;;;7287139;19;20197;-80
2023/09/01 02:04:15;;;;;;;11.93;5.00;;;17.40;99.90;;;;;;7284353;19;20279;-79
2023/09/01 02:06:41;;;;;;;11.70;6.00;;;17.40;99.90;;;;;;7307914;19;20201;-80
2023/09/01 02:09:09;;;;;;;9.13;5.20;;;17.50;99.90;;;;;;7286988;19;20846;-80
2023/09/01 02:11:36;;;;;;;8.97;5.30;;;17.60;99.90;;;;;;7286662;19;20212;-79
2023/09/01 02:14:02;;;;;;;13.60;5.67;;;17.70;99.90;;;;;;7284618;19;20178;-80
2023/09/01 02:16:28;;;;;;;13.17;5.80;;;17.90;99.90;;;;;;7285585;19;20185;-79
2023/09/01 02:18:54;;;;;;;13.70;6.10;;;18.00;99.90;;;;;;7285629;19;20499;-80
2023/09/01 02:21:20;;;;;;;10.50;6.20;;;18.10;99.90;;;;;;7286587;19;20192;-80
2023/09/01 02:23:47;;;;;;;12.30;5.87;;;18.10;99.90;;;;;;7284892;19;20188;-79
2023/09/01 02:26:19;;;;;;;12.90;5.90;;;18.10;99.90;;;;;;7288750;19;20191;-80
2023/09/01 02:28:46;;;;;;;17.93;6.00;;;18.10;99.90;;;;;;7286258;19;20181;-79
2023/09/01 02:31:11;;;;;;;14.17;5.77;;;18.20;99.90;;;;;;7299481;19;20258;-81
2023/09/01 02:33:37;;;;;;;14.77;5.43;;;18.30;99.90;;;;;;7301400;19;20200;-80
2023/09/01 02:36:26;;;;;;;12.97;5.80;;;18.40;99.90;;;;;;7285756;19;20193;-80
2023/09/01 02:38:53;;;;;;;13.03;5.93;;;18.40;99.90;;;;;;7182115;19;2004570;-80
2023/09/01 02:41:19;;;;;;;12.43;5.77;;;18.50;99.90;;;;;;7286214;19;20188;-81
2023/09/01 02:43:45;;;;;;;13.67;6.10;;;18.50;99.90;;;;;;7283524;19;20185;-79
2023/09/01 02:46:12;;;;;;;15.17;6.40;;;18.50;99.90;;;;;;7303825;19;20204;-79
2023/09/01 02:48:38;;;;;;;11.53;5.77;;;18.50;99.90;;;;;;7305906;19;20186;-80
2023/09/01 02:51:06;;;;;;;14.20;6.60;;;18.50;99.90;;;;;;7283973;19;20195;-80
2023/09/01 02:53:33;;;;;;;13.27;6.80;;;18.50;99.90;;;;;;7282209;19;20250;-81
2023/09/01 02:55:59;;;;;;;15.30;6.70;;;18.40;99.90;;;;;;7282959;19;20189;-80
2023/09/01 02:58:26;;;;;;;14.13;7.43;;;18.40;99.90;;;;;;7284689;19;20198;-79
2023/09/01 03:00:52;;;;;;;12.67;7.10;;;18.40;99.90;;;;;;7284385;19;20185;-80
2023/09/01 03:03:21;;;;;;;14.27;7.00;;;18.30;99.90;;;;;;7284641;19;20199;-81
2023/09/01 03:05:49;;;;;;;13.57;7.30;;;18.30;99.90;;;;;;7283153;19;20198;-79
2023/09/01 03:08:17;;;;;;;12.90;7.00;;;18.20;99.90;;;;;;7282930;19;20564;-80
2023/09/01 03:10:42;;;;;;;16.23;7.80;;;18.30;99.90;;;;;;7287917;19;20277;-80
2023/09/01 03:13:08;;;;;;;17.70;8.27;;;18.40;99.90;;;;;;7304178;19;20197;-81
2023/09/01 03:15:34;;;;;;;15.37;7.70;;;18.40;99.90;;;;;;7282573;19;20185;-81
2023/09/01 03:18:00;;;;;;;15.40;8.63;;;18.50;99.90;;;;;;7282913;19;20209;-79
2023/09/01 03:20:26;;;;;;;15.13;7.40;;;18.50;99.90;;;;;;7284097;19;20252;-81
2023/09/01 03:22:52;;;;;;;11.43;6.97;;;18.50;99.90;;;;;;7282609;19;20575;-79
2023/09/01 03:25:18;;;;;;;15.63;7.60;;;18.50;99.90;;;;;;7281624;19;20193;-79
2023/09/01 03:27:44;;;;;;;14.97;7.83;;;18.50;99.90;;;;;;7282104;19;20220;-80
2023/09/01 03:30:11;;;;;;;14.53;7.80;;;18.60;99.90;;;;;;7304924;19;20191;-79
2023/09/01 03:32:39;;;;;;;13.97;7.73;;;18.60;99.90;;;;;;7283719;19;20310;-80
2023/09/01 03:35:05;;;;;;;14.60;7.67;;;18.60;99.90;;;;;;7283219;19;20321;-81
2023/09/01 03:37:32;;;;;;;13.83;8.00;;;18.60;99.90;;;;;;7282956;19;20860;-81
2023/09/01 03:39:57;;;;;;;15.50;8.70;;;18.60;99.90;;;;;;7284478;19;20659;-81
2023/09/01 03:42:23;;;;;;;16.33;8.53;;;18.70;99.90;;;;;;7284253;19;20198;-81
2023/09/01 03:44:49;;;;;;;17.00;9.27;;;18.80;99.90;;;;;;7281565;19;20263;-81
2023/09/01 03:47:15;;;;;;;15.13;8.27;;;18.80;99.90;;;;;;7283459;19;20197;-79
2023/09/01 03:49:41;;;;;;;15.50;8.60;;;18.90;99.90;;;;;;7305618;19;20243;-81
2023/09/01 03:52:07;;;;;;;16.57;8.87;;;18.80;99.90;;;;;;7282746;19;20191;-80
2023/09/01 03:54:33;;;;;;;17.47;9.40;;;18.90;99.90;;;;;;7282423;19;21688;-80
2023/09/01 03:56:59;;;;;;;16.83;8.73;;;19.00;99.90;;;;;;7281802;19;20189;-81
2023/09/01 03:59:25;;;;;;;16.57;9.07;;;19.00;99.90;;;;;;7281218;19;20610;-81
2023/09/01 04:01:50;;;;;;;15.00;9.00;;;19.10;99.90;;;;;;7282516;19;20253;-80
2023/09/01 04:04:17;;;;;;;17.80;8.87;;;19.00;99.90;;;;;;7280436;19;20187;-80
2023/09/01 04:06:43;;;;;;;17.27;9.10;;;18.90;99.90;;;;;;7282513;19;20200;-80
2023/09/01 04:09:11;;;;;;;13.97;8.43;;;18.90;99.90;;;;;;7311747;19;20195;-80
2023/09/01 04:11:36;;;;;;;13.73;7.43;;;18.80;99.90;;;;;;7288816;19;20228;-80
2023/09/01 04:14:04;;;;;;;14.40;8.03;;;18.80;99.90;;;;;;7289529;19;20232;-81
2023/09/01 04:16:30;;;;;;;13.37;6.63;;;18.80;99.90;;;;;;7289722;19;20229;-79
2023/09/01 04:18:56;;;;;;;12.27;6.83;;;18.90;99.90;;;;;;7287490;19;20189;-79
2023/09/01 04:21:24;;;;;;;12.70;6.60;;;18.90;99.90;;;;;;7289449;19;20190;-79
2023/09/01 04:23:50;;;;;;;13.40;6.83;;;18.80;99.90;;;;;;7288175;19;20788;-79
2023/09/01 04:26:16;;;;;;;11.87;6.27;;;18.70;99.90;;;;;;7288168;19;20205;-79
2023/09/01 04:28:42;;;;;;;12.97;6.57;;;18.70;99.90;;;;;;7304905;19;20191;-79
2023/09/01 04:31:16;;;;;;;13.00;6.83;;;18.70;99.90;;;;;;7306669;19;20611;-80
2023/09/01 04:33:43;;;;;;;12.77;6.33;;;18.70;99.90;;;;;;7272033;19;20995;-79
2023/09/01 04:36:10;;;;;;;13.63;7.33;;;18.70;99.90;;;;;;7310960;19;20205;-80
2023/09/01 04:38:36;;;;;;;11.83;6.77;;;18.80;99.90;;;;;;7287616;19;20191;-81
2023/09/01 04:41:02;;;;;;;16.80;7.13;;;18.90;99.90;;;;;;7288236;19;20205;-80
2023/09/01 04:43:31;;;;;;;16.60;7.10;;;19.00;99.90;;;;;;7286697;19;20267;-80
2023/09/01 04:45:58;;;;;;;11.83;6.83;;;19.00;99.90;;;;;;7286089;19;20190;-81
2023/09/01 04:48:25;;;;;;;12.30;6.83;;;19.00;99.90;;;;;;7287228;19;20196;-85
2023/09/01 04:50:52;;;;;;;10.97;6.90;;;19.00;99.90;;;;;;7286561;19;20285;-79
2023/09/01 04:53:18;;;;;;;12.70;7.23;;;18.90;99.90;;;;;;7286396;19;20799;-80
2023/09/01 04:55:47;;;;;;;11.70;6.53;;;18.90;99.90;;;;;;7291278;19;20184;-80
2023/09/01 04:58:13;;;;;;;13.10;7.73;;;18.90;99.90;;;;;;7297225;19;20177;-79
2023/09/01 05:00:39;;;;;;;11.83;7.00;;;18.90;99.90;;;;;;7304267;19;20289;-79
2023/09/01 05:03:05;;;;;;;11.93;7.00;;;19.00;99.90;;;;;;7286508;19;21560;-80
2023/09/01 05:05:30;;;;;;;16.23;7.83;;;19.00;99.90;;;;;;7287350;19;20185;-81
2023/09/01 05:07:56;;;;;;;14.97;7.73;;;19.00;99.90;;;;;;7286405;19;20204;-81
2023/09/01 05:10:22;;;;;;;12.73;6.83;;;19.00;99.90;;;;;;7284731;19;20235;-80
2023/09/01 05:12:48;;;;;;;11.27;6.63;;;19.10;99.90;;;;;;7286946;19;20646;-80
2023/09/01 05:15:13;;;;;;;12.90;6.63;;;19.10;99.90;;;;;;7290917;19;20207;-80
2023/09/01 05:17:40;;;;;;;15.17;7.37;;;19.10;99.90;;;;;;7308759;19;20191;-80
2023/09/01 05:20:07;;;;;;;14.97;7.33;;;19.20;99.90;;;;;;7285674;19;20223;-80
2023/09/01 05:22:34;;;;;;;13.90;7.60;;;19.30;99.90;;;;;;7285988;19;20263;-80
2023/09/01 05:25:00;;;;;;;13.17;7.13;;;19.30;99.90;;;;;;7284617;19;20199;-79
2023/09/01 05:27:26;;;;;;;13.10;6.83;;;19.30;99.90;;;;;;7286983;19;20719;-80
2023/09/01 05:29:52;;;;;;;15.83;7.40;;;19.30;99.90;;;;;;7287113;19;20206;-80
2023/09/01 05:32:20;;;;;;;11.50;6.60;;;19.40;99.90;;;;;;7287185;19;20189;-81
2023/09/01 05:34:47;;;;;;;12.43;7.00;;;19.40;99.90;;;;;;7285385;19;20191;-80
2023/09/01 05:37:13;;;;;;;12.83;7.30;;;19.50;99.90;;;;;;7299853;19;20207;-80
2023/09/01 05:39:42;;;;;;;11.77;6.90;;;19.40;99.90;;;;;;7305100;19;20308;-80
2023/09/01 05:42:08;;;;;;;11.67;6.73;;;19.50;99.90;;;;;;7286436;19;20299;-80
2023/09/01 05:44:35;;;;;;;14.67;6.80;;;19.50;99.90;;;;;;7282785;19;20188;-81
2023/09/01 05:47:05;;;;;;;13.37;7.20;;;19.50;99.90;;;;;;7286354;19;20192;-81
2023/09/01 05:49:33;;;;;;;13.73;7.43;;;19.60;99.90;;;;;;7285420;19;20545;-80
2023/09/01 05:52:00;;;;;;;16.67;7.47;;;19.70;99.90;;;;;;7284022;19;20182;-79
2023/09/01 05:54:26;;;;;;;12.63;7.00;;;19.80;99.90;;;;;;7285742;19;20663;-79
2023/09/01 05:56:53;;;;;;;13.67;7.27;;;19.80;99.90;;;;;;7284789;19;20633;-79
2023/09/01 05:59:19;;;;;;;13.37;7.13;;;19.70;99.90;;;;;;7284480;19;20222;-78
2023/09/01 06:01:46;;;;;;;13.67;7.20;;;19.80;99.90;;;;;;7284744;19;20964;-78
2023/09/01 06:04:12;;;;;;;14.07;7.40;;;19.70;99.90;;;;;;7307448;19;20189;-79
2023/09/01 06:06:38;;;;;;;13.73;7.20;;;19.60;99.90;;;;;;7285966;19;20193;-79
2023/09/01 06:09:05;;;;;;;12.87;7.20;;;19.60;99.90;;;;;;7285486;19;20197;-79
2023/09/01 06:11:32;;;;;;;14.07;6.43;;;19.50;99.90;;;;;;7283959;19;20206;-79
2023/09/01 06:13:59;;;;;;;14.73;7.10;;;19.50;99.90;;;;;;7284026;19;20197;-78
2023/09/01 06:16:28;;;;;;;12.40;6.97;;;19.50;99.90;;;;;;7285010;19;20682;-78
2023/09/01 06:18:54;;;;;;;13.53;6.27;;;19.70;99.90;;;;;;7282338;19;20838;-79
2023/09/01 06:21:20;;;;;;;11.73;5.83;;;19.80;99.90;;;;;;7283772;19;20206;-79
2023/09/01 06:23:47;;;;;;;9.83;5.60;;;19.80;99.90;;;;;;7283177;19;20186;-79
2023/09/01 06:26:17;;;;;;;10.87;5.50;;;19.90;99.90;;;;;;7297711;19;20189;-79
2023/09/01 06:28:47;;;;;;;10.77;5.23;;;19.80;99.90;;;;;;7295797;19;20206;-79
2023/09/01 06:31:15;;;;;;;9.93;5.23;;;19.70;99.90;;;;;;7299590;19;20193;-79
2023/09/01 06:33:43;;;;;;;11.70;5.90;;;19.80;99.90;;;;;;7305993;19;20577;-78
2023/09/01 06:36:13;;;;;;;10.93;5.90;;;19.80;99.90;;;;;;7286168;19;21063;-79
2023/09/01 06:38:42;;;;;;;12.63;5.80;;;19.80;99.90;;;;;;7283468;19;20208;-77
2023/09/01 06:41:09;;;;;;;10.73;6.03;;;19.90;99.90;;;;;;7285343;19;20193;-80
2023/09/01 06:43:35;;;;;;;11.93;5.63;;;19.90;99.90;;;;;;7284960;19;20189;-79
2023/09/01 06:46:01;;;;;;;13.07;6.23;;;19.90;99.90;;;;;;7282007;19;20199;-78
2023/09/01 06:48:26;;;;;;;9.80;5.50;;;19.90;99.90;;;;;;7282212;19;20193;-79
2023/09/01 06:50:53;;;;;;;11.80;5.50;;;19.90;99.90;;;;;;7278866;19;20557;-78
2023/09/01 06:53:18;;;;;;;13.23;5.63;;;19.80;99.90;;;;;;7281544;19;20208;-79
2023/09/01 06:55:47;;;;;;;10.73;4.63;;;19.80;99.90;;;;;;7290045;19;20839;-79
2023/09/01 06:58:13;;;;;;;9.93;5.50;;;19.60;99.90;;;;;;7303339;19;20760;-79
2023/09/01 07:00:39;;;;;;;9.40;4.07;;;19.60;99.90;;;;;;7304704;19;20301;-79
2023/09/01 07:03:05;;;;;;;6.83;3.30;;;19.40;99.90;;;;;;7283580;19;20200;-79
2023/09/01 07:05:31;;;;;;;7.10;3.27;;;19.30;99.90;;;;;;7282055;19;20193;-79
2023/09/01 07:07:57;;;;;;;7.80;2.70;;;19.30;99.90;;;;;;7283876;19;20265;-79
2023/09/01 07:10:22;;;;;;;5.10;2.50;;;19.20;99.90;;;;;;7278567;19;20184;-80
2023/09/01 07:12:48;;;;;;;5.93;2.17;;;19.20;99.90;;;;;;7278252;19;20203;-78
2023/09/01 07:15:14;;;;;;;4.07;2.23;;;19.20;99.90;;;;;;7287013;19;20192;-81
2023/09/01 07:17:40;;;;;;;7.20;2.13;;;19.20;99.90;;;;;;7301564;19;20192;-79
2023/09/01 07:20:06;;;;;;;7.47;2.33;;;19.20;99.90;;;;;;7276917;19;20225;-80
2023/09/01 07:22:32;;;;;;;5.80;2.17;;;19.20;99.90;;;;;;7282035;19;20189;-81
2023/09/01 07:24:58;;;;;;;4.23;1.90;;;19.00;99.90;;;;;;7281532;19;20670;-80
2023/09/01 07:27:23;;;;;;;5.73;2.20;;;19.00;99.90;;;;;;7283647;19;20702;-79
2023/09/01 07:29:49;;;;;;;4.63;1.60;;;19.10;99.90;;;;;;7280814;19;20187;-79
2023/09/01 07:32:18;;;;;;;4.20;1.90;;;19.00;99.90;;;;;;7279710;19;20251;-80
2023/09/01 07:34:46;;;;;;;3.63;1.63;;;19.10;99.90;;;;;;7293498;19;20189;-79
2023/09/01 07:37:12;;;;;;;5.33;1.87;;;19.10;99.90;;;;;;7304611;19;20187;-80
2023/09/01 07:39:38;;;;;;;4.10;1.70;;;19.10;99.90;;;;;;7280656;19;20308;-80
2023/09/01 07:42:05;;;;;;;2.23;1.23;;;19.10;99.90;;;;;;7286514;19;20208;-80
2023/09/01 07:44:31;;;;;;;2.93;1.30;;;19.10;99.90;;;;;;7290295;19;20186;-81
2023/09/01 07:46:56;;;;;;;3.70;1.70;;;19.20;99.90;;;;;;7288369;19;20671;-80
2023/09/01 07:49:22;;;;;;;3.40;1.30;;;19.20;99.90;;;;;;7289456;19;20692;-80
2023/09/01 07:51:48;;;;;;;2.40;1.00;;;19.20;99.90;;;;;;7285888;19;20719;-79
2023/09/01 07:54:15;;;;;;;2.60;1.00;;;19.30;99.90;;;;;;7288343;19;20192;-80
2023/09/01 07:56:44;;;;;;;3.53;1.00;;;19.30;99.90;;;;;;7307773;19;20196;-81
2023/09/01 07:59:10;;;;;;;3.73;0.97;;;19.20;99.90;;;;;;7286161;19;20598;-81
2023/09/01 08:01:39;;;;;;;2.40;0.90;;;19.20;99.90;;;;;;7288443;19;20208;-80
2023/09/01 08:04:05;;;;;;;3.20;1.10;;;19.30;99.90;;;;;;7283281;19;20207;-81
2023/09/01 08:06:31;;;;;;;1.40;0.97;;;19.40;99.90;;;;;;7281062;19;20189;-81
2023/09/01 08:08:57;;;;;;;3.03;1.10;;;19.50;99.90;;;;;;7288320;19;20184;-80
2023/09/01 08:11:23;;;;;;;3.77;1.20;;;19.60;99.90;;;;;;7288359;19;20184;-79
2023/09/01 08:13:49;;;;;;;2.33;1.20;;;19.60;99.90;;;;;;7288562;19;20594;-80
2023/09/01 08:16:16;;;;;;;3.90;1.33;;;19.60;99.90;;;;;;7289645;19;20203;-79
2023/09/01 08:18:43;;;;;;;3.73;1.50;;;19.50;99.90;;;;;;7309129;19;20252;-79
2023/09/01 08:21:09;;;;;;;7.07;1.90;;;19.60;99.90;;;;;;7289591;19;20201;-80
2023/09/01 08:23:34;;;;;;;3.03;1.50;;;19.50;99.90;;;;;;7287686;19;20669;-80
2023/09/01 08:26:07;;;;;;;6.07;2.77;;;19.50;99.90;;;;;;7286952;19;20643;-80
2023/09/01 08:28:33;;;;;;;3.00;1.80;;;19.50;99.90;;;;;;7289887;19;20185;-79
2023/09/01 08:31:03;;;;;;;3.17;1.70;;;19.50;99.90;;;;;;7286478;19;20189;-79
2023/09/01 08:33:29;;;;;;;3.93;1.50;;;19.70;99.90;;;;;;7287469;19;20184;-79
2023/09/01 08:35:55;;;;;;;4.20;1.60;;;19.70;99.90;;;;;;7288683;19;20196;-79
2023/09/01 08:38:21;;;;;;;3.27;1.50;;;19.70;99.90;;;;;;7286910;19;20255;-79
2023/09/01 08:40:57;;;;;;;3.70;1.57;;;19.70;99.90;;;;;;7286804;19;20193;-79
2023/09/01 08:43:23;;;;;;;2.80;1.53;;;19.80;99.90;;;;;;7288926;19;20196;-80
2023/09/01 08:45:50;;;;;;;3.63;1.53;;;19.80;99.90;;;;;;7286792;19;20559;-78
2023/09/01 08:48:16;;;;;;;3.13;1.53;;;19.90;99.90;;;;;;7287470;19;20300;-79
2023/09/01 08:50:42;;;;;;;5.13;1.50;;;20.00;99.90;;;;;;7308871;19;20212;-79
2023/09/01 08:53:08;;;;;;;5.90;1.50;;;20.10;99.90;;;;;;7285198;19;20189;-79
2023/09/01 08:55:33;;;;;;;4.10;1.60;;;20.00;99.90;;;;;;7288094;19;20197;-78
2023/09/01 08:57:59;;;;;;;3.90;1.80;;;20.00;99.90;;;;;;7286639;19;20597;-80
2023/09/01 09:00:25;;;;;;;3.93;1.53;;;20.00;99.90;;;;;;7287004;19;20199;-78
2023/09/01 09:02:51;;;;;;;4.63;1.70;;;20.00;99.90;;;;;;7287522;19;20738;-79
2023/09/01 09:05:22;;;;;;;4.23;1.77;;;20.10;99.90;;;;;;7286259;19;20228;-79
2023/09/01 09:07:58;;;;;;;3.00;1.60;;;20.20;99.90;;;;;;7288034;19;20200;-80
2023/09/01 09:10:34;;;;;;;4.40;1.60;;;20.20;99.90;;;;;;7285523;19;20259;-80
2023/09/01 09:13:00;;;;;;;4.60;1.63;;;20.20;99.90;;;;;;7284845;19;20197;-79
2023/09/01 09:15:26;;;;;;;4.13;1.60;;;20.20;99.90;;;;;;7287501;19;20676;-80
2023/09/01 09:17:52;;;;;;;3.07;1.43;;;20.20;99.90;;;;;;7285137;19;20191;-80
2023/09/01 09:20:19;;;;;;;2.63;1.70;;;20.20;99.90;;;;;;7285258;19;20191;-80
2023/09/01 09:22:56;;;;;;;4.07;1.50;;;20.20;99.90;;;;;;7288497;19;20268;-80
2023/09/01 09:25:37;;;;;;;3.27;1.50;;;20.20;99.90;;;;;;7285654;19;20189;-79
2023/09/01 09:28:13;;;;;;;3.27;1.40;;;20.20;99.90;;;;;;7285824;19;20195;-78
2023/09/01 09:30:50;;;;;;;3.07;1.53;;;20.20;99.90;;;;;;7285879;19;20219;-80
2023/09/01 09:33:26;;;;;;;4.77;1.30;;;20.30;99.90;;;;;;7263816;19;20267;-79
2023/09/01 09:35:52;;;;;;;3.50;1.63;;;20.20;99.90;;;;;;7286195;19;20719;-79
2023/09/01 09:38:17;;;;;;;4.17;2.30;;;20.30;99.90;;;;;;7283654;19;20199;-78
2023/09/01 09:40:57;;;;;;;4.83;1.67;;;20.20;99.90;;;;;;7304433;19;20200;-78
2023/09/01 09:43:23;;;;;;;2.83;1.57;;;20.10;99.90;;;;;;7285903;19;20664;-79
2023/09/01 09:45:52;;;;;;;3.70;1.40;;;20.30;99.90;;;;;;7284689;19;20186;-79
2023/09/01 09:48:18;;;;;;;2.23;1.00;;;20.60;99.90;;;;;;7285323;19;20190;-78
2023/09/01 09:50:47;;;;;;;2.00;1.23;;;20.80;99.90;;;;;;7295160;19;20656;-80
2023/09/01 09:53:14;;;;;;;3.40;1.27;;;20.90;99.90;;;;;;7306137;19;20185;-80
2023/09/01 09:55:48;;;;;;;2.03;1.27;;;21.00;99.90;;;;;;7285978;19;20985;-80
2023/09/01 09:58:16;;;;;;;1.77;1.00;;;21.10;99.90;;;;;;7281073;19;20601;-78
2023/09/01 10:01:06;;;;;;;4.27;1.37;;;21.00;99.90;;;;;;7306780;19;20185;-79
2023/09/01 10:03:32;;;;;;;3.53;1.40;;;20.90;99.90;;;;;;7183451;19;2005055;-78
2023/09/01 10:06:03;;;;;;;5.03;1.10;;;21.00;99.90;;;;;;7283311;19;20258;-79
2023/09/01 10:08:31;;;;;;;3.87;1.20;;;21.10;99.90;;;;;;7285088;19;20208;-79
2023/09/01 10:10:57;;;;;;;2.47;1.30;;;21.20;99.90;;;;;;7284268;19;20198;-79
2023/09/01 10:13:23;;;;;;;2.40;1.00;;;21.40;99.90;;;;;;7284015;19;20187;-79
2023/09/01 10:15:49;;;;;;;5.23;1.10;;;21.60;99.90;;;;;;7285077;19;20250;-79
2023/09/01 10:18:17;;;;;;;1.37;0.97;;;21.70;99.90;;;;;;7283381;19;20190;-79
2023/09/01 10:20:43;;;;;;;4.30;0.90;;;22.10;99.90;;;;;;7305285;19;20188;-80
2023/09/01 10:23:11;;;;;;;1.40;0.80;;;22.80;99.90;;;;;;7285960;19;20188;-79
2023/09/01 10:25:36;;;;;;;1.67;0.70;;;23.40;99.90;;;;;;7289237;19;20213;-78
2023/09/01 10:28:07;;;;;;;2.00;0.87;;;23.20;99.90;;;;;;7283369;19;20200;-78
2023/09/01 10:30:38;;;;;;;1.90;0.70;;;23.20;99.90;;;;;;7281896;19;20196;-78
2023/09/01 10:33:10;;;;;;;1.40;0.70;;;23.30;99.90;;;;;;7284472;19;20240;-78
2023/09/01 10:35:40;;;;;;;2.93;0.80;;;23.50;99.90;;;;;;7283790;19;20193;-79
2023/09/01 10:38:22;;;;;;;2.40;0.70;;;23.40;99.90;;;;;;7282934;19;20192;-79
2023/09/01 10:40:57;;;;;;;1.30;0.80;;;23.50;99.90;;;;;;7260334;19;20193;-80
2023/09/01 10:43:37;;;;;;;2.13;0.80;;;23.90;99.90;;;;;;7282933;19;20542;-78
2023/09/01 10:46:12;;;;;;;2.87;0.80;;;23.80;99.90;;;;;;7283525;19;20223;-79
2023/09/01 10:48:51;;;;;;;7.50;1.90;;;24.00;99.90;;;;;;7282498;19;20690;-79
2023/09/01 10:51:21;;;;;;;4.00;1.50;;;24.50;99.90;;;;;;7261745;19;20189;-79
2023/09/01 10:53:52;;;;;;;2.83;1.50;;;24.70;99.90;;;;;;7282828;19;20806;-78
2023/09/01 10:56:20;;;;;;;3.20;1.83;;;25.20;99.90;;;;;;7281379;19;20252;-79
2023/09/01 10:58:56;;;;;;;3.70;2.13;;;25.20;99.90;;;;;;7280982;19;20192;-78
2023/09/01 11:01:34;;;;;;;4.13;2.10;;;24.50;99.90;;;;;;7281443;19;20692;-78
2023/09/01 11:04:22;;;;;;;3.50;2.20;;;24.60;99.90;;;;;;7281427;19;20209;-78
2023/09/01 11:06:56;;;;;;;4.83;2.53;;;24.60;99.90;;;;;;7258670;19;20185;-79
2023/09/01 11:09:23;;;;;;;2.80;2.00;;;24.70;99.90;;;;;;7279909;19;20184;-78
2023/09/01 11:11:51;;;;;;;3.60;2.30;;;25.00;99.90;;;;;;7280838;19;20930;-78
2023/09/01 11:14:21;;;;;;;6.50;2.17;;;25.20;99.90;;;;;;7279925;19;20196;-79
2023/09/01 11:16:47;;;;;;;4.70;2.33;;;25.30;99.90;;;;;;7279806;19;20695;-78
2023/09/01 11:19:13;;;;;;;3.77;2.50;;;25.80;99.90;;;;;;7302941;19;20205;-78
2023/09/01 11:21:41;;;;;;;3.57;2.43;;;25.90;99.90;;;;;;7283051;19;20188;-79
2023/09/01 11:24:07;;;;;;;6.70;2.33;;;26.80;99.90;;;;;;7281142;19;20185;-79
2023/09/01 11:26:36;;;;;;;4.95;2.80;;;27.10;99.90;;;;;;7280953;19;20209;-78
2023/09/01 11:29:02;;;;;;;5.93;2.47;;;26.90;99.90;;;;;;7279981;19;20192;-79
2023/09/01 11:31:38;;;;;;;6.65;3.22;;;26.90;99.90;;;;;;7281350;19;20205;-79
2023/09/01 11:34:05;;;;;;;4.85;3.40;;;26.50;99.90;;;;;;7282553;19;20182;-79
2023/09/01 11:36:31;;;;;;;6.27;3.70;;;26.10;99.90;;;;;;7281539;19;20200;-79
2023/09/01 11:38:57;;;;;;;5.60;3.90;;;25.60;99.90;;;;;;7280261;19;20188;-78
2023/09/01 11:41:23;;;;;;;6.97;3.40;;;25.20;99.90;;;;;;7281231;19;20289;-79
2023/09/01 11:43:50;;;;;;;5.77;3.77;;;24.50;99.90;;;;;;7282903;19;20205;-79
2023/09/01 11:46:16;;;;;;;7.27;4.17;;;24.40;99.90;;;;;;7282124;19;20255;-78
2023/09/01 11:48:46;;;;;;;6.60;4.10;;;24.60;99.90;;;;;;7302650;19;20898;-79
2023/09/01 11:51:12;;;;;;;5.77;4.00;;;25.50;99.90;;;;;;7281354;19;20180;-78
2023/09/01 11:53:38;;;;;;;7.07;4.07;;;26.30;99.90;;;;;;7280204;19;20181;-79
2023/09/01 11:56:20;;;;;;;6.00;3.93;;;25.80;99.90;;;;;;7280522;19;20198;-78
2023/09/01 11:58:51;;;;;;;6.63;3.90;;;26.20;99.90;;;;;;7259946;19;20272;-79
2023/09/01 12:01:19;;;;;;;7.93;3.50;;;27.00;99.90;;;;;;7280878;19;20664;-78
2023/09/01 12:03:49;;;;;;;5.03;3.30;;;28.00;99.90;;;;;;7290761;19;20264;-79
2023/09/01 12:06:18;;;;;;;6.25;3.05;;;28.10;99.90;;;;;;7294575;19;20257;-79
2023/09/01 12:08:45;;;;;;;4.80;2.80;;;28.30;99.90;;;;;;7297559;19;20188;-79
2023/09/01 12:11:12;;;;;;;4.38;2.88;;;28.40;99.90;;;;;;7301281;19;20929;-79
2023/09/01 12:13:38;;;;;;;4.18;3.00;;;29.50;99.90;;;;;;7280082;19;20181;-79
2023/09/01 12:16:05;;;;;;;4.60;2.75;;;30.50;99.90;;;;;;7280060;19;20325;-79
2023/09/01 12:18:38;;;;;;;3.38;2.10;;;31.20;99.90;;;;;;7277361;19;20228;-79
2023/09/01 12:21:09;;;;;;;3.63;2.47;;;32.20;99.90;;;;;;7280681;19;20205;-79
2023/09/01 12:23:37;;;;;;;4.70;2.30;;;32.80;99.90;;;;;;7279921;19;20208;-80
2023/09/01 12:26:06;;;;;;;3.95;2.50;;;32.30;99.90;;;;;;7279601;19;20189;-78
2023/09/01 12:28:35;;;;;;;3.35;2.50;;;32.50;99.90;;;;;;7280743;19;20189;-78
2023/09/01 12:31:02;;;;;;;3.33;2.40;;;33.60;99.90;;;;;;7286228;19;20244;-78
2023/09/01 12:33:28;;;;;;;3.38;2.35;;;33.50;99.90;;;;;;7287952;19;20189;-78
2023/09/01 12:35:54;;;;;;;5.32;2.80;;;33.40;99.90;;;;;;7286223;19;20185;-79
2023/09/01 12:38:20;;;;;;;3.50;2.33;;;33.00;99.90;;;;;;7286731;19;20679;-78
2023/09/01 12:40:47;;;;;;;4.22;2.58;;;32.40;99.90;;;;;;7285132;19;20199;-78
2023/09/01 12:43:14;;;;;;;5.47;2.72;;;31.60;99.90;;;;;;7310197;19;20205;-79
2023/09/01 12:45:40;;;;;;;3.90;2.80;;;30.80;99.90;;;;;;7286602;19;20510;-78